Chronik & Geschichte

Boeing Stearman am Flugplatz Konstanz

Mit seiner 107-jährigen Geschichte ist Konstanz der älteste Verkehrslandeplatz Deutschlands. Lesen Sie unsere Festschrift zum 100-jährigen Platzjubiläum oder entdecken Sie die ausführliche Flugplatzchronik auf der Website der Initiative PRO Flugplatz Konstanz.

Live am Platz

Die Bilder unserer Webcams werden alle 5 Minuten aktualisiert.

Sonnenaufgang:

04:17 UTC / 06:17 Lokal

Sonnenuntergang:

18:26 UTC / 20:26 Lokal

METAR (23.04.2018 20:20 UTC):

EDNY 232020Z AUTO 17005KT 140V200 9999 // FEW021/// BKN058/// OVC068/// 13/12 Q1020
VFR

TAF (23.04.2018 17:00 UTC):

TAF EDNY 231700Z 2318/2418 VRB03KT 9999 SCT040 PROB30 TEMPO 2318/2323 27015G25KT TSRA SCT030CB BKN045 BECMG 2408/2410 24006KT

Alle Angaben unverbindlich und ohne Gewähr. Zeiten genähert.

Für den Verkehrslandeplatz Konstanz werden keine offiziellen Wetterinformationen herausgegeben. Daher werden zur Orientierung Daten des nahegelegenen Flughafens Friedrichshafen dargestellt.